Time;durP1;ratioP1;P1;durP2;ratioP2;P2;SDS_P1;SDS_P2;PMS_P1;PMS_P2;Temp;Humidity;BMP_temperature;BMP_pressure;BME280_temperature;BME280_humidity;BME280_pressure;Samples;Min_cycle;Max_cycle;Signal;HPM_P1;HPM_P2
2023/03/18 00:00:15;;;;;;;20.50;11.27;;;;;;;-0.93;100.00;93459.66;5090060;28;20044;-72
2023/03/18 00:02:44;;;;;;;20.48;10.95;;;;;;;-0.99;100.00;93453.41;5089683;28;20473;-72
2023/03/18 00:05:12;;;;;;;28.15;14.13;;;;;;;-1.00;100.00;93457.66;5089660;28;20105;-72
2023/03/18 00:07:39;;;;;;;22.65;13.27;;;;;;;-1.03;100.00;93454.63;5089841;28;20584;-72
2023/03/18 00:10:08;;;;;;;24.05;13.55;;;;;;;-1.05;100.00;93448.88;5089550;28;20554;-72
2023/03/18 00:12:37;;;;;;;27.13;14.68;;;;;;;-1.07;100.00;93449.00;5089596;28;20610;-71
2023/03/18 00:15:05;;;;;;;32.75;16.05;;;;;;;-1.09;100.00;93446.66;5089643;28;20036;-71
2023/03/18 00:17:31;;;;;;;25.35;15.18;;;;;;;-1.24;100.00;93430.31;5089477;28;20144;-71
2023/03/18 00:20:04;;;;;;;27.70;16.60;;;;;;;-1.16;100.00;93438.00;5076396;28;20089;-71
2023/03/18 00:22:32;;;;;;;24.05;15.68;;;;;;;-1.17;100.00;93431.38;5089573;28;20052;-71
2023/03/18 00:25:17;;;;;;;27.58;16.60;;;;;;;-1.17;100.00;93428.06;5089550;28;20043;-72
2023/03/18 00:27:43;;;;;;;29.33;17.10;;;;;;;-1.19;100.00;93415.59;5089222;28;20097;-72
2023/03/18 00:30:12;;;;;;;34.30;19.95;;;;;;;-1.11;100.00;93418.25;5089344;28;20043;-71
2023/03/18 00:32:40;;;;;;;32.00;18.35;;;;;;;-1.13;100.00;93421.81;5089253;28;20044;-72
2023/03/18 00:35:09;;;;;;;30.98;17.10;;;;;;;-1.15;100.00;93419.41;5089583;28;20101;-71
2023/03/18 00:37:36;;;;;;;32.63;19.55;;;;;;;-1.23;100.00;93410.03;5088795;28;20055;-71
2023/03/18 00:40:05;;;;;;;30.63;17.20;;;;;;;-1.19;100.00;93415.59;5087778;28;20060;-71
2023/03/18 00:42:37;;;;;;;28.80;15.93;;;;;;;-1.27;100.00;93402.84;5088914;28;20048;-71
2023/03/18 00:45:06;;;;;;;25.17;15.02;;;;;;;-1.27;100.00;93403.66;5088977;28;20058;-72
2023/03/18 00:47:32;;;;;;;25.88;13.73;;;;;;;-1.42;100.00;93384.81;5088871;28;20068;-72
2023/03/18 00:49:59;;;;;;;20.75;12.48;;;;;;;-1.33;100.00;93404.19;5083073;28;20388;-71
2023/03/18 00:52:27;;;;;;;22.08;13.00;;;;;;;-1.41;100.00;93399.81;5075833;28;20048;-72
2023/03/18 00:54:54;;;;;;;21.23;12.48;;;;;;;-1.70;100.00;93357.75;5085802;28;20048;-71
2023/03/18 00:57:21;;;;;;;18.83;12.25;;;;;;;-1.45;100.00;93407.75;5087614;28;20056;-72
2023/03/18 00:59:48;;;;;;;21.83;13.32;;;;;;;-1.57;100.00;93389.44;5089217;28;20139;-72
2023/03/18 01:02:15;;;;;;;22.67;13.52;;;;;;;-1.54;100.00;93394.19;5089188;28;20040;-72
2023/03/18 01:04:43;;;;;;;24.10;13.70;;;;;;;-1.66;100.00;93391.03;5089032;28;20131;-72
2023/03/18 01:07:11;;;;;;;21.70;12.98;;;;;;;-1.72;100.00;93379.72;5076118;28;20044;-71
2023/03/18 01:09:39;;;;;;;22.65;13.13;;;;;;;-1.67;100.00;93394.47;5088961;28;20052;-71
2023/03/18 01:12:08;;;;;;;24.67;13.05;;;;;;;-1.71;100.00;93385.56;5089205;28;20089;-71
2023/03/18 01:14:35;;;;;;;25.40;13.38;;;;;;;-1.72;100.00;93386.50;5089330;28;20093;-71
2023/03/18 01:17:02;;;;;;;21.02;12.90;;;;;;;-1.75;100.00;93385.81;5088781;28;20499;-71
2023/03/18 01:19:29;;;;;;;22.48;12.98;;;;;;;-1.72;100.00;93384.78;5088905;28;20093;-71
2023/03/18 01:21:55;;;;;;;25.35;14.02;;;;;;;-1.74;100.00;93386.63;5088840;28;20527;-72
2023/03/18 01:24:23;;;;;;;23.20;13.93;;;;;;;-1.86;100.00;93372.56;5088434;28;20044;-72
2023/03/18 01:26:51;;;;;;;21.92;13.05;;;;;;;-1.78;100.00;93386.09;5088628;28;20493;-72
2023/03/18 01:29:19;;;;;;;22.23;13.35;;;;;;;-1.77;100.00;93382.66;5088670;28;20040;-72
2023/03/18 01:31:46;;;;;;;22.77;13.45;;;;;;;-1.78;100.00;93377.75;5088756;28;20063;-72
2023/03/18 01:34:15;;;;;;;26.20;15.15;;;;;;;-1.79;100.00;93382.00;5088586;28;20496;-72
2023/03/18 01:36:42;;;;;;;27.70;17.65;;;;;;;-1.77;100.00;93380.13;5088302;28;20066;-72
2023/03/18 01:39:09;;;;;;;30.38;18.38;;;;;;;-1.78;100.00;93381.06;5088942;28;20048;-72
2023/03/18 01:41:37;;;;;;;26.70;17.67;;;;;;;-1.81;100.00;93363.69;5088889;28;20127;-72
2023/03/18 01:44:12;;;;;;;25.85;16.70;;;;;;;-1.78;100.00;93376.03;5088932;28;20040;-72
2023/03/18 01:46:41;;;;;;;35.72;22.25;;;;;;;-1.81;100.00;93378.78;5088379;28;20048;-71
2023/03/18 01:49:12;;;;;;;51.08;31.23;;;;;;;-1.95;100.00;93354.78;5088600;28;20052;-71
2023/03/18 01:51:42;;;;;;;57.30;35.28;;;;;;;-1.83;100.00;93372.28;5088279;28;20036;-71
2023/03/18 01:54:09;;;;;;;42.15;27.45;;;;;;;-1.86;100.00;93367.53;5089227;28;20401;-71
2023/03/18 01:56:39;;;;;;;35.15;22.65;;;;;;;-1.97;100.00;93370.94;5092529;28;20120;-71
2023/03/18 01:59:09;;;;;;;29.05;20.13;;;;;;;-2.11;100.00;93367.88;5092524;28;20094;-71
2023/03/18 02:01:42;;;;;;;31.35;20.13;;;;;;;-2.09;100.00;93366.00;5078928;28;20052;-71
2023/03/18 02:04:10;;;;;;;31.70;20.77;;;;;;;-2.09;100.00;93365.22;5092115;28;20052;-72
2023/03/18 02:06:38;;;;;;;29.55;18.20;;;;;;;-2.10;100.00;93358.56;5092375;28;20549;-71
2023/03/18 02:09:06;;;;;;;31.05;17.95;;;;;;;-2.11;100.00;93350.25;5092233;28;20109;-71
2023/03/18 02:11:37;;;;;;;29.30;17.95;;;;;;;-2.11;100.00;93351.97;5091787;28;20048;-71
2023/03/18 02:14:06;;;;;;;26.25;16.45;;;;;;;-2.13;100.00;93354.59;5092113;28;20044;-71
2023/03/18 02:16:42;;;;;;;27.50;17.10;;;;;;;-2.08;100.00;93356.75;5091788;28;20052;-70
2023/03/18 02:19:19;;;;;;;28.17;16.80;;;;;;;-2.04;100.00;93353.06;5091760;28;20044;-70
2023/03/18 02:21:53;;;;;;;30.05;18.80;;;;;;;-2.02;100.00;93353.72;5092123;28;20040;-70
2023/03/18 02:24:31;;;;;;;28.33;18.00;;;;;;;-2.08;100.00;93349.19;5091996;28;20051;-70
2023/03/18 02:27:01;;;;;;;27.35;16.98;;;;;;;-2.14;100.00;93340.44;5091579;28;20048;-71
2023/03/18 02:29:33;;;;;;;28.90;17.20;;;;;;;-2.15;100.00;93348.91;5091990;28;20515;-70
2023/03/18 02:32:02;;;;;;;25.17;16.00;;;;;;;-2.19;100.00;93345.84;5091371;28;20086;-70
2023/03/18 02:34:30;;;;;;;23.80;15.60;;;;;;;-2.19;100.00;93347.56;5091982;28;20078;-70
2023/03/18 02:36:57;;;;;;;22.13;14.32;;;;;;;-2.19;100.00;93340.81;5091346;28;20504;-70
2023/03/18 02:39:24;;;;;;;21.85;13.85;;;;;;;-2.21;100.00;93344.38;5091715;28;20055;-70
2023/03/18 02:41:51;;;;;;;23.35;14.48;;;;;;;-2.22;100.00;93345.31;5091208;28;20503;-70
2023/03/18 02:44:19;;;;;;;19.90;12.73;;;;;;;-2.26;100.00;93342.28;5091539;28;20412;-70
2023/03/18 02:46:54;;;;;;;22.10;13.45;;;;;;;-2.30;100.00;93341.69;5091343;28;20396;-70
2023/03/18 02:49:22;;;;;;;21.45;13.70;;;;;;;-2.39;100.00;93327.41;5091162;28;20055;-69
2023/03/18 02:51:49;;;;;;;26.73;15.15;;;;;;;-2.33;100.00;93344.50;5091588;28;20040;-69
2023/03/18 02:54:17;;;;;;;25.13;16.35;;;;;;;-2.36;100.00;93341.44;5091190;28;20423;-69
2023/03/18 02:56:44;;;;;;;27.70;18.45;;;;;;;-2.37;100.00;93344.88;5078529;28;20043;-70
2023/03/18 02:59:12;;;;;;;26.38;17.88;;;;;;;-2.38;100.00;93345.78;5091069;28;20044;-70
2023/03/18 03:01:40;;;;;;;26.67;17.40;;;;;;;-2.38;100.00;93345.78;5091499;28;20040;-70
2023/03/18 03:04:08;;;;;;;26.80;16.55;;;;;;;-2.39;100.00;93345.00;5090687;28;20496;-70
2023/03/18 03:06:36;;;;;;;24.92;16.17;;;;;;;-2.39;100.00;93342.50;5090679;28;20048;-70
2023/03/18 03:09:04;;;;;;;25.05;16.25;;;;;;;-2.40;100.00;93348.44;5090716;28;20556;-70
2023/03/18 03:11:30;;;;;;;27.55;15.90;;;;;;;-2.43;100.00;93339.44;5091073;28;20056;-70
2023/03/18 03:13:57;;;;;;;24.70;15.27;;;;;;;-2.46;100.00;93338.91;5090864;28;20040;-70
2023/03/18 03:16:24;;;;;;;22.48;14.77;;;;;;;-2.47;100.00;93340.59;5091183;28;20044;-70
2023/03/18 03:18:51;;;;;;;23.58;13.60;;;;;;;-2.50;100.00;93342.59;5090591;28;20472;-70
2023/03/18 03:21:20;;;;;;;21.67;13.30;;;;;;;-2.56;100.00;93337.13;5090976;28;20054;-70
2023/03/18 03:23:47;;;;;;;25.02;14.13;;;;;;;-2.52;100.00;93345.22;5090654;28;20143;-70
2023/03/18 03:26:15;;;;;;;23.65;13.65;;;;;;;-2.53;100.00;93345.34;5090502;28;20044;-70
2023/03/18 03:28:42;;;;;;;21.63;12.52;;;;;;;-2.55;100.00;93351.28;5090319;28;20040;-70
2023/03/18 03:31:09;;;;;;;21.75;12.73;;;;;;;-2.59;100.00;93349.16;5090541;28;20512;-70
2023/03/18 03:33:40;;;;;;;19.05;11.70;;;;;;;-2.60;100.00;93353.38;5090619;28;20051;-70
2023/03/18 03:36:08;;;;;;;19.73;11.80;;;;;;;-2.66;100.00;93355.59;5090483;28;20957;-70
2023/03/18 03:38:36;;;;;;;19.77;11.77;;;;;;;-2.67;100.00;93349.78;5090025;28;20094;-70
2023/03/18 03:41:04;;;;;;;18.35;11.65;;;;;;;-2.70;100.00;93358.38;5090233;28;20048;-70
2023/03/18 03:43:30;;;;;;;19.27;11.38;;;;;;;-2.75;100.00;93347.09;5090254;28;20044;-70
2023/03/18 03:45:57;;;;;;;16.38;10.27;;;;;;;-2.79;100.00;93348.28;5090487;28;20044;-70
2023/03/18 03:48:24;;;;;;;22.83;11.70;;;;;;;-2.85;100.00;93352.06;5090060;28;20044;-70
2023/03/18 03:50:51;;;;;;;18.65;11.00;;;;;;;-2.81;100.00;93355.94;5090424;28;20098;-70
2023/03/18 03:53:18;;;;;;;15.70;10.10;;;;;;;-2.84;100.00;93361.22;5090051;28;20450;-70
2023/03/18 03:55:46;;;;;;;18.52;11.15;;;;;;;-2.84;100.00;93358.69;5090386;28;20131;-70
2023/03/18 03:58:12;;;;;;;15.30;10.15;;;;;;;-2.87;100.00;93351.41;5089765;28;20109;-70
2023/03/18 04:00:39;;;;;;;17.67;10.30;;;;;;;-2.89;100.00;93355.75;5089765;28;20435;-71
2023/03/18 04:03:06;;;;;;;15.55;9.98;;;;;;;-2.92;100.00;93351.75;5090194;28;20044;-70
2023/03/18 04:05:33;;;;;;;19.90;10.55;;;;;;;-2.93;100.00;93360.22;5089813;28;20044;-70
2023/03/18 04:08:00;;;;;;;14.63;9.75;;;;;;;-2.96;100.00;93360.50;5089743;28;20097;-69
2023/03/18 04:10:27;;;;;;;19.42;11.18;;;;;;;-3.05;100.00;93354.50;5089601;28;20048;-70
2023/03/18 04:12:55;;;;;;;16.83;10.98;;;;;;;-3.01;100.00;93360.06;5089766;28;20509;-70
2023/03/18 04:15:22;;;;;;;20.17;11.57;;;;;;;-3.01;100.00;93358.34;5089664;28;20109;-70
2023/03/18 04:17:50;;;;;;;20.50;11.95;;;;;;;-3.01;100.00;93367.59;5075789;28;20048;-70
2023/03/18 04:20:18;;;;;;;18.80;12.25;;;;;;;-3.03;100.00;93367.72;5089329;28;20545;-70
2023/03/18 04:22:44;;;;;;;22.17;13.65;;;;;;;-3.07;100.00;93365.59;5089539;28;20534;-70
2023/03/18 04:25:13;;;;;;;23.92;14.13;;;;;;;-3.07;100.00;93370.63;5089608;28;20044;-70
2023/03/18 04:27:41;;;;;;;21.85;13.85;;;;;;;-3.06;100.00;93360.41;5089406;28;20500;-70
2023/03/18 04:30:11;;;;;;;20.80;13.93;;;;;;;-3.07;100.00;93355.53;5089405;28;20557;-70
2023/03/18 04:32:38;;;;;;;22.17;15.65;;;;;;;-3.03;100.00;93370.22;5089718;28;20093;-70
2023/03/18 04:35:05;;;;;;;23.42;15.13;;;;;;;-3.01;100.00;93368.38;5089521;28;20466;-70
2023/03/18 04:37:34;;;;;;;26.15;14.15;;;;;;;-3.05;100.00;93363.75;5089559;28;20055;-70
2023/03/18 04:40:01;;;;;;;20.38;12.52;;;;;;;-2.97;100.00;93379.78;5089134;28;20055;-70
2023/03/18 04:42:27;;;;;;;19.25;11.05;;;;;;;-3.01;100.00;93373.41;5089560;28;20055;-70
2023/03/18 04:44:54;;;;;;;19.48;9.82;;;;;;;-3.05;100.00;93376.31;5089265;28;20093;-70
2023/03/18 04:47:22;;;;;;;16.90;9.15;;;;;;;-3.02;100.00;93384.38;5075741;28;20048;-70
2023/03/18 04:49:49;;;;;;;15.23;9.23;;;;;;;-2.98;100.00;93377.41;5089058;28;20519;-70
2023/03/18 04:52:16;;;;;;;11.25;8.20;;;;;;;-2.99;100.00;93369.06;5084138;28;20101;-70
2023/03/18 04:54:43;;;;;;;14.20;8.48;;;;;;;-2.98;100.00;93374.88;5080801;28;20409;-71
2023/03/18 04:57:10;;;;;;;14.18;7.78;;;;;;;-2.98;100.00;93374.88;5072892;28;20101;-71
2023/03/18 04:59:36;;;;;;;21.63;11.90;;;;;;;-3.05;100.00;93374.59;5089341;28;20052;-71
2023/03/18 05:02:03;;;;;;;16.15;9.38;;;;;;;-3.09;100.00;93375.75;5071455;28;20045;-70
2023/03/18 05:04:32;;;;;;;29.52;15.70;;;;;;;-3.07;100.00;93390.72;5081846;28;20686;-71
2023/03/18 05:06:59;;;;;;;43.88;21.13;;;;;;;-3.06;100.00;93380.53;5071597;28;20059;-72
2023/03/18 05:09:26;;;;;;;26.52;14.77;;;;;;;-3.07;100.00;93378.94;5085539;28;20041;-72
2023/03/18 05:11:52;;;;;;;21.20;11.90;;;;;;;-3.00;100.00;93385.06;5068482;28;20055;-71
2023/03/18 05:14:19;;;;;;;17.13;9.73;;;;;;;-3.00;100.00;93384.28;5076716;28;20529;-71
2023/03/18 05:16:46;;;;;;;17.88;8.70;;;;;;;-3.02;100.00;93381.88;5075462;28;20091;-71
2023/03/18 05:19:13;;;;;;;16.30;8.85;;;;;;;-3.05;100.00;93371.28;5088977;28;20048;-71
2023/03/18 05:21:41;;;;;;;14.77;9.15;;;;;;;-2.95;100.00;93384.72;5076007;28;20044;-71
2023/03/18 05:24:08;;;;;;;19.17;10.20;;;;;;;-3.01;100.00;93375.16;5088284;28;20157;-72
2023/03/18 05:26:36;;;;;;;15.23;9.82;;;;;;;-2.90;100.00;93387.66;5076379;28;20052;-72
2023/03/18 05:29:03;;;;;;;18.60;11.98;;;;;;;-2.84;100.00;93387.16;5085301;28;20062;-71
2023/03/18 05:31:29;;;;;;;19.02;10.43;;;;;;;-2.77;100.00;93392.50;5093112;28;20076;-72
2023/03/18 05:33:56;;;;;;;19.98;11.05;;;;;;;-2.63;100.00;93385.53;5092703;28;20859;-72
2023/03/18 05:36:23;;;;;;;19.92;12.43;;;;;;;-3.04;100.00;93320.91;5086723;28;20036;-71
2023/03/18 05:38:51;;;;;;;27.13;15.63;;;;;;;-2.39;100.00;93397.03;5082389;28;20101;-71
2023/03/18 05:41:18;;;;;;;26.08;15.68;;;;;;;-2.24;100.00;93398.28;5092901;28;20109;-71
2023/03/18 05:43:45;;;;;;;25.98;16.05;;;;;;;-2.18;100.00;93394.47;5092612;28;20085;-71
2023/03/18 05:46:12;;;;;;;19.80;11.52;;;;;;;-2.11;100.00;93395.56;5087012;28;20051;-71
2023/03/18 05:48:39;;;;;;;23.02;14.27;;;;;;;-1.97;100.00;93401.97;5081383;28;20435;-71
2023/03/18 05:51:06;;;;;;;32.33;18.48;;;;;;;-1.78;100.00;93400.41;5091695;28;20052;-71
2023/03/18 05:53:32;;;;;;;36.65;22.00;;;;;;;-1.60;100.00;93403.09;5092385;28;20553;-71
2023/03/18 05:56:01;;;;;;;34.05;22.13;;;;;;;-1.49;100.00;93384.53;5092053;28;20044;-72
2023/03/18 05:58:29;;;;;;;36.05;20.60;;;;;;;-1.23;100.00;93396.63;5092302;28;20105;-72
2023/03/18 06:00:57;;;;;;;30.80;18.23;;;;;;;-1.02;100.00;93393.16;5092828;28;20048;-71
2023/03/18 06:03:24;;;;;;;28.40;18.42;;;;;;;-0.89;100.00;93397.94;5092232;28;21186;-71
2023/03/18 06:05:51;;;;;;;28.38;17.13;;;;;;;-0.66;100.00;93405.19;5091079;28;20070;-71
2023/03/18 06:08:17;;;;;;;29.10;17.15;;;;;;;-0.50;100.00;93397.84;5075149;28;20083;-72
2023/03/18 06:10:44;;;;;;;25.13;15.77;;;;;;;-0.31;100.00;93404.56;5073727;28;20134;-73
2023/03/18 06:13:17;;;;;;;20.83;14.43;;;;;;;-0.25;100.00;93393.13;5071255;28;20048;-72
2023/03/18 06:15:45;;;;;;;23.95;15.27;;;;;;;0.11;100.00;93397.47;5073613;28;20053;-72
2023/03/18 06:18:12;;;;;;;23.00;14.52;;;;;;;0.29;100.00;93396.72;5092438;28;20549;-72
2023/03/18 06:20:39;;;;;;;23.67;16.08;;;;;;;0.43;100.00;93395.44;5074581;28;20052;-73
2023/03/18 06:23:09;;;;;;;28.45;18.55;;;;;;;0.43;100.00;93395.44;5083568;28;20045;-73
2023/03/18 06:25:37;;;;;;;28.60;20.98;;;;;;;0.43;100.00;93400.50;5070752;28;20052;-73
2023/03/18 06:28:04;;;;;;;28.83;19.17;;;;;;;0.53;100.00;93408.81;5070842;28;20131;-73
2023/03/18 06:30:32;;;;;;;32.38;21.75;;;;;;;0.59;100.00;93409.97;5089501;28;20480;-73
2023/03/18 06:32:59;;;;;;;31.85;20.25;;;;;;;0.53;100.00;93414.69;5083677;28;20682;-72
2023/03/18 06:35:27;;;;;;;38.28;23.52;;;;;;;0.56;100.00;93413.59;5080583;28;20090;-72
2023/03/18 06:37:53;;;;;;;39.78;25.17;;;;;;;0.38;100.00;93395.88;5070559;28;20049;-71
2023/03/18 06:40:21;;;;;;;43.33;25.77;;;;;;;0.18;100.00;93413.66;5079102;28;20048;-71
2023/03/18 06:42:47;;;;;;;46.22;28.17;;;;;;;0.10;100.00;93409.31;5090614;28;20055;-72
2023/03/18 06:45:15;;;;;;;36.53;23.50;;;;;;;0.30;100.00;93401.63;5080562;28;20044;-71
2023/03/18 06:47:45;;;;;;;35.55;21.77;;;;;;;0.61;100.00;93406.34;5068761;28;20064;-72
2023/03/18 06:50:12;;;;;;;31.52;18.55;;;;;;;0.76;100.00;93404.13;5070682;28;20045;-71
2023/03/18 06:52:39;;;;;;;29.02;17.10;;;;;;;1.02;100.00;93397.56;5082452;28;20518;-71
2023/03/18 06:55:07;;;;;;;33.35;18.33;;;;;;;1.23;100.00;93394.69;5086527;28;20086;-71
2023/03/18 06:57:34;;;;;;;26.20;15.27;;;;;;;1.11;100.00;93399.19;5091143;28;20044;-71
2023/03/18 07:00:00;;;;;;;31.90;18.17;;;;;;;1.34;100.00;93403.75;5090732;28;20079;-71
2023/03/18 07:02:27;;;;;;;38.70;19.50;;;;;;;1.50;100.00;93399.75;5090588;28;20051;-71
2023/03/18 07:04:55;;;;;;;39.60;16.80;;;;;;;1.64;100.00;93386.56;5090671;28;20108;-71
2023/03/18 07:07:23;;;;;;;41.65;16.75;;;;;;;1.93;100.00;93398.09;5090947;28;20052;-71
2023/03/18 07:09:51;;;;;;;43.55;15.35;;;;;;;1.93;100.00;93399.81;5090804;28;20059;-72
2023/03/18 07:12:18;;;;;;;44.25;18.20;;;;;;;2.03;100.00;93389.59;5090915;28;20052;-71
2023/03/18 07:14:45;;;;;;;39.78;17.42;;;;;;;2.28;100.00;93393.00;5086939;28;20041;-72
2023/03/18 07:17:13;;;;;;;29.40;14.45;;;;;;;2.54;100.00;93394.63;5081739;28;20071;-71
2023/03/18 07:19:40;;;;;;;28.83;15.02;;;;;;;2.58;100.00;93393.38;5090538;28;20087;-71
2023/03/18 07:22:08;;;;;;;32.35;16.77;;;;;;;2.89;100.00;93399.59;5090758;28;20094;-71
2023/03/18 07:24:36;;;;;;;36.05;17.83;;;;;;;3.06;100.00;93382.66;5090751;28;20044;-71
2023/03/18 07:27:03;;;;;;;37.67;18.33;;;;;;;3.33;100.00;93390.84;5090538;28;20092;-71
2023/03/18 07:29:30;;;;;;;30.17;16.63;;;;;;;3.34;100.00;93387.38;5090367;28;20052;-71
2023/03/18 07:31:56;;;;;;;32.28;17.85;;;;;;;3.61;100.00;93388.75;5090342;28;20046;-71
2023/03/18 07:34:23;;;;;;;33.75;17.27;;;;;;;3.68;100.00;93383.03;5090514;28;20125;-71
2023/03/18 07:36:50;;;;;;;33.83;16.42;;;;;;;3.64;100.00;93389.38;5090194;28;20040;-71
2023/03/18 07:39:18;;;;;;;37.03;17.77;;;;;;;3.55;100.00;93388.59;5090298;28;20138;-71
2023/03/18 07:41:45;;;;;;;37.90;18.95;;;;;;;3.61;100.00;93377.78;5090349;28;20105;-71
2023/03/18 07:44:11;;;;;;;62.72;32.65;;;;;;;3.93;100.00;93381.22;5080391;28;20090;-72
2023/03/18 07:46:48;;;;;;;37.30;18.73;;;;;;;3.94;100.00;93369.31;5080473;28;20048;-72
2023/03/18 07:49:15;;;;;;;53.25;29.45;;;;;;;4.26;100.00;93378.53;5089654;28;20052;-72
2023/03/18 07:51:41;;;;;;;46.70;24.52;;;;;;;4.51;100.00;93380.97;5090427;28;20052;-72
2023/03/18 07:54:08;;;;;;;34.03;16.75;;;;;;;4.47;100.00;93381.44;5090170;28;20044;-72
2023/03/18 07:56:36;;;;;;;31.77;17.15;;;;;;;4.25;100.00;93381.22;5090302;28;20048;-73
2023/03/18 07:59:03;;;;;;;32.38;16.55;;;;;;;4.17;100.00;93387.16;5089884;28;20051;-72
2023/03/18 08:01:30;;;;;;;43.95;19.88;;;;;;;4.30;100.00;93390.94;5089171;28;20044;-72
2023/03/18 08:03:56;;;;;;;33.42;15.95;;;;;;;4.24;100.00;93385.53;5089836;28;20484;-72
2023/03/18 08:06:24;;;;;;;35.60;16.88;;;;;;;4.47;100.00;93381.44;5089850;28;20052;-72
2023/03/18 08:08:50;;;;;;;28.52;14.88;;;;;;;4.81;100.00;93383.63;5090113;28;20119;-70
2023/03/18 08:11:17;;;;;;;26.10;12.80;;;;;;;4.93;91.95;93386.56;5088270;28;20051;-70
2023/03/18 08:13:48;;;;;;;21.70;10.68;;;;;;;5.07;88.68;93386.78;5068824;28;20086;-72
2023/03/18 08:16:15;;;;;;;18.88;10.55;;;;;;;5.07;87.55;93354.50;5069061;28;20049;-73
2023/03/18 08:18:42;;;;;;;21.05;11.32;;;;;;;5.51;94.06;93374.31;5089500;28;20056;-73
2023/03/18 08:21:08;;;;;;;22.95;10.98;;;;;;;5.62;88.75;93381.53;5089341;28;20070;-72
2023/03/18 08:23:35;;;;;;;25.83;12.50;;;;;;;5.85;90.10;93376.38;5089820;28;20381;-72
2023/03/18 08:26:03;;;;;;;29.08;12.73;;;;;;;6.24;93.95;93378.81;5088581;28;20055;-72
2023/03/18 08:28:29;;;;;;;36.80;13.38;;;;;;;5.87;86.48;93378.72;5089456;28;20048;-72
2023/03/18 08:30:58;;;;;;;34.05;13.07;;;;;;;6.19;93.17;93370.91;5089469;28;20048;-72
2023/03/18 08:33:26;;;;;;;30.33;12.85;;;;;;;6.20;87.08;93380.16;5089592;28;20044;-72
2023/03/18 08:35:54;;;;;;;27.92;12.88;;;;;;;5.85;87.91;93378.94;5089581;28;20130;-71
2023/03/18 08:38:22;;;;;;;28.33;11.10;;;;;;;5.99;86.12;93373.97;5089189;28;20048;-72
2023/03/18 08:40:49;;;;;;;25.92;10.55;;;;;;;6.09;88.41;93373.72;5089385;28;20059;-72
2023/03/18 08:43:16;;;;;;;21.08;9.75;;;;;;;6.14;83.60;93376.53;5089034;28;20048;-71
2023/03/18 08:45:43;;;;;;;28.15;11.02;;;;;;;5.92;83.12;93380.75;5089000;28;20048;-71
2023/03/18 08:48:12;;;;;;;24.75;10.02;;;;;;;6.24;86.03;93371.97;5089189;28;20044;-69
2023/03/18 08:50:38;;;;;;;20.35;10.10;;;;;;;6.46;75.85;93366.91;5089119;28;20095;-69
2023/03/18 08:53:05;;;;;;;18.52;8.48;;;;;;;6.13;73.42;93380.88;5088692;28;20504;-69
2023/03/18 08:55:35;;;;;;;14.15;8.23;;;;;;;6.14;74.40;93372.25;5089233;28;20058;-69
2023/03/18 08:58:05;;;;;;;15.82;8.07;;;;;;;6.51;76.97;93371.47;5089012;28;20047;-69
2023/03/18 09:00:32;;;;;;;13.32;7.50;;;;;;;6.64;72.89;93368.25;5085639;28;20527;-69
2023/03/18 09:02:59;;;;;;;15.32;7.65;;;;;;;6.26;73.93;93362.34;5087056;28;20048;-69
2023/03/18 09:05:31;;;;;;;16.63;7.70;;;;;;;6.63;75.66;93369.22;5087494;28;20633;-69
2023/03/18 09:07:59;;;;;;;5.30;3.40;;;;;;;6.80;67.12;93373.13;5089076;28;20499;-69
2023/03/18 09:10:26;;;;;;;5.28;3.60;;;;;;;6.80;62.68;93369.78;5088752;28;20412;-69
2023/03/18 09:12:52;;;;;;;8.20;4.47;;;;;;;7.02;64.88;93370.59;5089292;28;20496;-69
2023/03/18 09:15:20;;;;;;;7.18;4.85;;;;;;;6.65;65.89;93367.28;5088952;28;20048;-69
2023/03/18 09:17:47;;;;;;;15.18;9.25;;;;;;;6.45;66.89;93372.19;5088736;28;20480;-69
2023/03/18 09:20:16;;;;;;;11.00;6.60;;;;;;;6.33;65.09;93385.41;5088845;28;20079;-69
2023/03/18 09:22:46;;;;;;;12.02;7.45;;;;;;;5.97;65.07;93378.47;5080908;28;20123;-69
2023/03/18 09:25:15;;;;;;;9.80;7.03;;;;;;;6.08;67.77;93375.50;5088474;28;20044;-69
2023/03/18 09:27:50;;;;;;;12.65;8.55;;;;;;;6.08;68.90;93385.72;5080163;28;20047;-69
2023/03/18 09:30:17;;;;;;;16.65;10.25;;;;;;;5.85;70.57;93376.38;5070121;28;20126;-69
2023/03/18 09:32:44;;;;;;;9.30;6.43;;;;;;;5.68;66.13;93382.59;5066142;28;20135;-71
2023/03/18 09:35:21;;;;;;;8.00;5.63;;;;;;;5.45;67.87;93374.06;5066790;28;20045;-70
2023/03/18 09:37:50;;;;;;;11.13;7.97;;;;;;;5.69;69.55;93382.41;5068351;28;20080;-70
2023/03/18 09:40:32;;;;;;;11.15;7.70;;;;;;;5.85;70.42;93380.66;5068038;28;20061;-70
2023/03/18 09:43:14;;;;;;;18.52;8.98;;;;;;;5.84;67.10;93377.31;5067813;28;20439;-70
2023/03/18 09:45:54;;;;;;;6.97;4.10;;;;;;;5.61;65.42;93375.63;5085074;28;20048;-69
2023/03/18 09:48:54;;;;;;;11.95;7.82;;;;;;;5.46;67.12;93380.72;5088198;28;20405;-69
2023/03/18 09:51:33;;;;;;;10.73;6.60;;;;;;;5.65;67.08;93375.31;5077323;28;20113;-69
2023/03/18 09:54:05;;;;;;;6.88;4.50;;;;;;;5.64;63.08;93384.69;5088609;28;20471;-69
2023/03/18 09:56:35;;;;;;;5.85;3.55;;;;;;;5.61;61.20;93390.94;5088900;28;20071;-69
2023/03/18 09:59:06;;;;;;;8.73;6.22;;;;;;;5.59;65.03;93386.97;5088057;28;20036;-69
2023/03/18 10:01:36;;;;;;;6.43;4.68;;;;;;;5.67;63.49;93386.09;5088322;28;20068;-69
2023/03/18 10:04:06;;;;;;;7.63;4.75;;;;;;;5.99;63.97;93386.72;5088492;28;20066;-70
2023/03/18 10:06:36;;;;;;;9.18;5.15;;;;;;;6.20;63.08;93398.00;5088220;28;20576;-69
2023/03/18 10:09:14;;;;;;;8.10;6.00;;;;;;;6.24;62.05;93389.00;5088219;28;20089;-69
2023/03/18 10:11:43;;;;;;;7.28;4.82;;;;;;;6.22;59.29;93389.22;5088303;28;20127;-69
2023/03/18 10:14:24;;;;;;;10.40;6.55;;;;;;;6.20;60.81;93390.34;5088265;28;20105;-69
2023/03/18 10:17:03;;;;;;;9.30;6.20;;;;;;;5.96;61.50;93375.13;5089643;28;20048;-70
2023/03/18 10:19:30;;;;;;;7.50;5.85;;;;;;;6.38;61.14;93388.22;5092033;28;20552;-69
2023/03/18 10:22:13;;;;;;;10.30;7.43;;;;;;;6.02;63.00;93388.94;5092815;28;20040;-69
2023/03/18 10:24:48;;;;;;;9.43;6.55;;;;;;;6.31;65.01;93391.66;5096324;28;20048;-69
2023/03/18 10:27:21;;;;;;;8.63;5.38;;;;;;;6.45;58.51;93380.63;5091701;28;20055;-69
2023/03/18 10:29:56;;;;;;;8.30;5.68;;;;;;;6.78;59.85;93382.75;5086676;28;20052;-69
2023/03/18 10:32:31;;;;;;;8.70;5.53;;;;;;;6.76;58.90;93387.22;5071128;28;20044;-69
2023/03/18 10:35:07;;;;;;;8.30;6.00;;;;;;;6.60;57.89;93390.00;5079560;28;20488;-69
2023/03/18 10:37:49;;;;;;;10.88;6.90;;;;;;;6.57;60.28;93378.38;5091765;28;20040;-69
2023/03/18 10:40:19;;;;;;;8.85;6.25;;;;;;;6.45;59.48;93388.28;5091325;28;20056;-69
2023/03/18 10:42:49;;;;;;;6.90;5.35;;;;;;;6.09;57.50;93341.38;5091668;28;20040;-71
2023/03/18 10:45:22;;;;;;;11.40;6.63;;;;;;;6.61;63.14;93394.94;5091630;28;20052;-72
2023/03/18 10:47:56;;;;;;;7.75;5.78;;;;;;;6.49;61.09;93391.28;5091280;28;20500;-70
2023/03/18 10:50:31;;;;;;;7.80;5.50;;;;;;;6.64;61.76;93386.13;5091158;28;20083;-69
2023/03/18 10:53:04;;;;;;;10.35;5.40;;;;;;;7.02;60.04;93375.69;5091673;28;20044;-69
2023/03/18 10:55:37;;;;;;;8.98;5.60;;;;;;;7.51;60.86;93382.75;5091222;28;20044;-69
2023/03/18 10:58:14;;;;;;;9.93;6.28;;;;;;;7.65;59.40;93384.41;5086871;28;20094;-69
2023/03/18 11:00:41;;;;;;;9.07;5.93;;;;;;;7.73;61.70;93375.81;5089923;28;20522;-70
2023/03/18 11:03:18;;;;;;;7.80;5.28;;;;;;;8.18;61.01;93379.78;5077347;28;20466;-70
2023/03/18 11:05:45;;;;;;;9.27;6.35;;;;;;;7.61;60.46;93375.53;5090781;28;20040;-69
2023/03/18 11:08:31;;;;;;;12.07;6.80;;;;;;;7.45;61.16;93367.16;5091435;28;20074;-69
2023/03/18 11:11:02;;;;;;;;;;;;;;;7.11;59.37;93373.00;5091510;28;20409;-70
2023/03/18 11:13:29;;;;;;;12.88;6.90;;;;;;;7.12;59.06;93372.81;5090656;28;20394;-69
2023/03/18 11:15:57;;;;;;;8.25;5.10;;;;;;;6.96;56.97;93378.97;5091017;28;20040;-69
2023/03/18 11:18:27;;;;;;;6.88;4.30;;;;;;;6.60;58.41;93369.59;5090667;28;20142;-69
2023/03/18 11:21:03;;;;;;;6.60;4.40;;;;;;;6.97;61.57;93334.59;5090443;28;20496;-69
2023/03/18 11:23:47;;;;;;;8.25;4.95;;;;;;;7.57;58.65;93341.91;5090726;28;20052;-69
2023/03/18 11:26:26;;;;;;;5.72;4.20;;;;;;;7.98;57.06;93365.91;5090404;28;20500;-70